AirNav   Air Wisconsin pilot careers
 
 1251 users online  

X50 Massey Ranch Airpark
New Smyrna Beach, Florida, USA

GOING TO NEW SMYRNA BEACH?


FAA INFORMATION EFFECTIVE 13 SEPTEMBER 2018

Location

FAA Identifier: X50
Lat/Long: 28-58-44.1000N / 080-55-29.2000W
28-58.735000N / 080-55.486667W
28.9789167 / -80.9247778
(estimated)
Elevation: 10.6 ft. / 3.2 m (surveyed)
Variation: 07W (2015)
From city: 3 miles S of NEW SMYRNA BEACH, FL
Time zone: UTC -4 (UTC -5 during Standard Time)
Zip code: 32132

Airport Operations

Airport use: Open to the public
Activation date: 06/1981
Control tower: no
ARTCC: JACKSONVILLE CENTER
FSS: SAINT PETERSBURG FLIGHT SERVICE STATION
NOTAMs facility: PIE (NOTAM-D service available)
Attendance: MON-FRI 0900-1700, ALL SAT-SUN IREG
Wind indicator: lighted
Segmented circle: no
Lights: SS-SR

Airport Communications

CTAF/UNICOM: 122.7
DAYTONA APPROACH: 125.35
DAYTONA DEPARTURE: 125.35
WX AWOS-3 at EVB (5 nm N): 124.625 (386-409-4705)
WX ASOS at DAB (14 nm NW): PHONE 386-253-7469
WX AWOS-3 at DED (20 nm W): 119.575 (386-740-5811)

Nearby radio navigation aids

VOR radial/distance  VOR name  Freq  Var
OMNr153/21.8ORMOND BEACH VORTAC112.6000E
ORLr040/33.9ORLANDO VORTAC112.2000E

Airport Services

Fuel available: 100LL JET-A
SELF SERVICE.
Parking: tiedowns
Airframe service: MAJOR
Powerplant service: MAJOR
Bottled oxygen: NONE
Bulk oxygen: NONE

Runway Information

Runway 18/36

Dimensions: 4360 x 60 ft. / 1329 x 18 m
Surface: asphalt, in good condition
Runway edge lights: low intensity
RY 18/36 LIRLS ARE POSITIONED 20 FT EITHER SIDE OF RY.
RUNWAY 18  RUNWAY 36
Latitude: 28-59.092047N28-58.377040N
Longitude: 080-55.531558W080-55.441417W
Elevation: 10.1 ft.9.9 ft.
Traffic pattern: leftleft
Runway heading: 181 magnetic, 174 true001 magnetic, 354 true
Displaced threshold: 315 ft.200 ft.
Markings: basic, in fair conditionbasic, in fair condition
Touchdown point: yes, no lightsyes, no lights
Obstructions: 10 ft. road, 84 ft. from runway, 250 ft. right of centerline
RY 18 10 FT ROAD 84 FT FROM RY END 250 FT R OF CNTRLN.
15 ft. road, 140 ft. from runway, 250 ft. left of centerline
RY 36 15 FT ROAD 140 FT FROM RY END 250 FT L OF CNTRLN.

Airport Ownership and Management from official FAA records

Ownership: Privately-owned
Owner: MASSEY RANCH AIRPARK
PO BOX 1947
NEW SMYRA BEACH, FL 32170-1947
Phone 386-428-3818
Manager: DALE MASSEY
MASSEY RANCH AIRPARK, PO BOX 1947
NEW SMYRA BEACH, FL 32170-1947
Phone 386-428-3818
AIRPORT PHYSICAL ADDRESS: 635 AIRPORT ROAD EDGEWATER, FL 32132.

Airport Operational Statistics

Aircraft based on the field: 98
Single engine airplanes: 75
Multi engine airplanes: 12
Jet airplanes: 1
Helicopters: 5
Gliders airplanes: 4
Ultralights: 1
    
Aircraft operations: avg 27/day *
59% local general aviation
41% transient general aviation
* for 12-month period ending 09 August 2017

Additional Remarks

GLIDER, BANNER TOWING, AEROBATICS & PARACHUTING ACTIVITY ON & INVOF ARPT.
ACFT MAINT CALL 386-426-6346.
RY 18 MARKED WITH 4 FT CHAIN LINK FENCE.
FOR CD OR TO CNL IFR CTC DAB APCH AT 386-226-3939.

Instrument Procedures

NOTE: All procedures below are presented as PDF files. If you need a reader for these files, you should download the free Adobe Reader.

NOT FOR NAVIGATION. Please procure official charts for flight.
FAA instrument procedures published for use from 13 September 2018 at 0901Z to 11 October 2018 at 0900Z.

 
IAPs - Instrument Approach Procedures
RNAV (GPS) RWY 18   download (187KB)
RNAV (GPS) RWY 36   download (202KB)
NOTE: Special Take-Off Minimums/Departure Procedures apply   download (238KB)

Other nearby airports with instrument procedures:

KEVB - New Smyrna Beach Municipal Airport (5 nm N)
KDAB - Daytona Beach International Airport (14 nm NW)
KDED - DeLand Municipal Airport-Sidney H Taylor Field (20 nm W)
KSFB - Orlando Sanford International Airport (20 nm SW)
KOMN - Ormond Beach Municipal Airport (22 nm NW)
 
Loc | Ops | Rwys | IFR | FBO | Links
Com | Nav | Svcs | Stats | Notes


 
Area around X50 (Massey Ranch Airpark)
 
Road maps at: MapQuest Bing Google
 
Aerial photo
WARNING: Photo may not be current or correct
Aerial photo of X50 (Massey Ranch Airpark)
Photo courtesy of Russell Aerial Photography
Taken in April 2012
looking east.

Do you have a better or more recent aerial photo of Massey Ranch Airpark that you would like to share? If so, please send us your photo.

 
Sectional chart

 
Airport distance calculator
Flying to Massey Ranch Airpark? Find the distance to fly.

From to X50

Sunrise and sunset
Times for 24-Sep-2018
 Local
(UTC-4)
 Zulu
(UTC)
Morning civil twilight06:5010:50
Sunrise07:1411:14
Sunset19:1723:17
Evening civil twilight19:4123:41

Current date and time
Zulu (UTC)  24-Sep-2018 21:30:13
Local (UTC-4)  24-Sep-2018 17:30:13
 
METAR
KEVB 
5nm N 
242047Z 11010KT 10SM FEW026 30/23 A3003
7FL6 
9nm NW 
SuperAWOS
242055Z AUTO 00000KT 10SM 29/23 A3003
KDAB 
14nm NW 
242053Z 08010KT 10SM FEW030 SCT100 29/23 A3003 RMK AO2 SLP166 TCU DSNT W T02890233 55014
KDED 
20nm W 
242055Z AUTO 08013KT 10SM BKN100 30/22 A3002 RMK AO2 LTG DSNT W
KSFB 
20nm SW 
242053Z 07008KT 10SM SCT100 29/23 A3001 RMK AO2 LTG DSNT SW RAE1956 SLP161 P0000 60001 T02940228 55012
TAF
KDAB 
14nm NW 
241742Z 2418/2518 09011KT P6SM VCSH SCT025 SCT050 SCT090 FM242000 08010KT P6SM FEW030 BKN250 FM250000 07004KT P6SM SCT025 BKN250 FM251400 08007KT P6SM SCT025 SCT250
KSFB 
20nm SW 
241742Z 2418/2518 10010KT P6SM VCSH SCT040 BKN070 BKN250 FM242200 09008KT P6SM FEW035 FEW070 BKN250 FM250300 07003KT P6SM FEW025 FM251400 09006KT P6SM SCT030 SCT250
NOTAMs
Click for the latest NOTAMs
NOTAMs are issued by the DoD/FAA and will open in a separate window not controlled by AirNav.

 

 
 

FBO, Fuel Providers, and Aircraft Ground Support

  
 Business Name 
 
 Contact 
 
 Services / Description 
 
Fuel Prices
 
Comments
  
Airpark Aviation Center 386-427-7708
[web site]
[email]
Aviation fuel, Aircraft parking (ramp or tiedown), Hangar leasing / sales, Rental cars, Pilots lounge / snooze room, Restrooms

More info about Airpark Aviation Center
Shell
100LL Jet A
SS $4.30 $3.70 
 Updated 14-Sep-2018
 
   write
SS=Self service
Update Fuel Prices
 

Would you like to see your business listed on this page?

 If your business provides an interesting product or service to pilots, flight crews, aircraft, or users of the Massey Ranch Airpark, you should consider listing it here.  To start the listing process, click on the button below
 
Add a business
 

Other Pages about Massey Ranch Airpark

www.masseyranchairpark.com
 
Update a link
 
Copyright © AirNav, LLC. All rights reserved. Privacy Policy  Contact